Time;durP1;ratioP1;P1;durP2;ratioP2;P2;SDS_P1;SDS_P2;PMS_P1;PMS_P2;Temp;Humidity;BMP_temperature;BMP_pressure;BME280_temperature;BME280_humidity;BME280_pressure;Samples;Min_cycle;Max_cycle;Signal;HPM_P1;HPM_P2
2022/12/01 00:00:35;;;;;;;10.25;6.75;;;;;;;19.05;43.33;102586.16;5013216;28;20049;-64
2022/12/01 00:03:00;;;;;;;9.68;6.22;;;;;;;19.06;43.38;102584.34;5002866;28;20033;-65
2022/12/01 00:05:26;;;;;;;9.50;6.53;;;;;;;19.04;43.24;102579.16;5001459;28;20030;-66
2022/12/01 00:07:51;;;;;;;9.10;6.40;;;;;;;19.04;43.12;102579.16;5013389;28;20271;-65
2022/12/01 00:10:25;;;;;;;8.73;6.53;;;;;;;19.02;43.15;102573.94;5006287;28;20275;-66
2022/12/01 00:13:02;;;;;;;9.77;7.22;;;;;;;19.00;42.95;102581.13;5001184;28;20026;-67
2022/12/01 00:15:29;;;;;;;9.07;6.78;;;;;;;18.98;43.07;102577.72;5008610;28;20037;-68
2022/12/01 00:17:56;;;;;;;10.32;6.95;;;;;;;18.95;43.13;102569.97;5012802;28;20034;-67
2022/12/01 00:20:22;;;;;;;10.45;7.38;;;;;;;18.95;43.05;102569.13;5000783;28;20065;-64
2022/12/01 00:22:48;;;;;;;10.48;7.38;;;;;;;18.94;43.12;102570.91;5003236;28;20081;-64
2022/12/01 00:25:15;;;;;;;9.95;6.90;;;;;;;18.95;42.98;102569.97;5020222;28;20084;-65
2022/12/01 00:27:41;;;;;;;11.38;7.00;;;;;;;18.93;43.15;102566.59;5001671;28;20116;-66
2022/12/01 00:30:09;;;;;;;10.52;7.50;;;;;;;18.93;42.80;102566.59;5000947;28;20176;-66
2022/12/01 00:32:34;;;;;;;9.98;7.57;;;;;;;18.89;42.92;102570.31;5013765;28;20706;-65
2022/12/01 00:35:01;;;;;;;8.93;6.47;;;;;;;18.91;43.01;102576.38;5010559;28;20137;-66
2022/12/01 00:37:29;;;;;;;10.07;7.22;;;;;;;18.87;42.77;102569.56;5014083;28;20090;-64
2022/12/01 00:39:54;;;;;;;9.55;7.15;;;;;;;18.90;43.08;102579.97;5008155;28;20066;-65
2022/12/01 00:42:19;;;;;;;9.03;6.67;;;;;;;18.87;42.67;102569.56;5009594;28;20417;-65
2022/12/01 00:44:46;;;;;;;10.87;6.93;;;;;;;18.87;42.89;102571.34;5003851;28;20263;-64
2022/12/01 00:47:11;;;;;;;9.80;6.90;;;;;;;18.78;42.74;102562.13;5011426;28;20263;-64
2022/12/01 00:49:37;;;;;;;10.32;6.75;;;;;;;18.84;42.63;102575.88;5007436;28;20045;-64
2022/12/01 00:52:02;;;;;;;10.10;6.90;;;;;;;18.87;42.95;102573.97;5018931;28;20033;-65
2022/12/01 00:54:30;;;;;;;10.25;7.13;;;;;;;18.81;42.63;102564.59;5006100;28;20120;-65
2022/12/01 00:56:56;;;;;;;9.25;6.47;;;;;;;18.75;42.63;102559.66;5004472;28;20565;-65
2022/12/01 00:59:21;;;;;;;9.52;6.60;;;;;;;18.83;42.81;102575.91;5010132;28;20022;-68
2022/12/01 01:01:48;;;;;;;10.40;7.38;;;;;;;18.82;42.90;102576.88;5007920;28;20401;-65
2022/12/01 01:04:13;;;;;;;10.82;7.43;;;;;;;18.81;42.76;102569.88;5022476;28;20072;-64
2022/12/01 01:06:39;;;;;;;12.10;7.47;;;;;;;18.77;42.75;102573.63;5023926;28;20065;-64
2022/12/01 01:09:04;;;;;;;12.03;7.43;;;;;;;18.77;42.65;102574.50;5011610;28;20442;-66
2022/12/01 01:11:29;;;;;;;11.13;7.72;;;;;;;18.77;42.89;102576.25;5018778;28;20270;-65
2022/12/01 01:13:54;;;;;;;10.60;7.00;;;;;;;18.78;42.59;102583.25;5022216;28;20531;-65
2022/12/01 01:16:21;;;;;;;10.47;7.20;;;;;;;18.75;42.56;102584.28;5008833;28;20033;-67
2022/12/01 01:18:46;;;;;;;11.48;7.50;;;;;;;18.76;42.82;102588.63;5004822;28;20819;-65
2022/12/01 01:21:15;;;;;;;10.82;7.35;;;;;;;18.74;42.69;102584.38;5021541;28;20516;-64
2022/12/01 01:23:41;;;;;;;11.15;8.15;;;;;;;18.73;42.58;102587.97;5023824;28;20075;-67
2022/12/01 01:26:10;;;;;;;11.60;7.75;;;;;;;18.74;42.70;102592.28;5017042;28;21074;-64
2022/12/01 01:28:35;;;;;;;11.57;7.47;;;;;;;18.71;42.65;102595.97;5012797;28;20405;-66
2022/12/01 01:31:05;;;;;;;12.25;7.70;;;;;;;18.71;42.75;102603.03;5010853;28;20041;-64
2022/12/01 01:33:30;;;;;;;10.75;7.63;;;;;;;18.71;42.59;102598.59;5020274;28;20057;-65
2022/12/01 01:35:58;;;;;;;11.20;7.70;;;;;;;18.66;42.60;102596.22;5013919;28;20041;-65
2022/12/01 01:38:24;;;;;;;11.80;8.20;;;;;;;18.69;42.59;102600.47;5017885;28;20061;-64
2022/12/01 01:40:49;;;;;;;11.85;7.88;;;;;;;18.70;42.66;102607.47;5011212;28;20116;-67
2022/12/01 01:43:16;;;;;;;12.27;7.80;;;;;;;18.68;42.47;102612.00;5015068;28;20037;-65
2022/12/01 01:45:42;;;;;;;12.57;8.15;;;;;;;18.68;42.65;102612.00;5012182;28;20270;-64
2022/12/01 01:48:10;;;;;;;12.57;8.07;;;;;;;18.64;42.44;102605.16;5020684;28;20044;-65
2022/12/01 01:50:35;;;;;;;11.93;7.72;;;;;;;18.66;42.53;102605.94;5015748;28;20041;-64
2022/12/01 01:53:06;;;;;;;12.40;7.50;;;;;;;18.64;42.88;102600.75;5015607;28;20037;-66
2022/12/01 01:55:32;;;;;;;11.05;7.35;;;;;;;18.65;42.54;102605.06;5015313;28;20057;-64
2022/12/01 01:57:59;;;;;;;11.68;7.63;;;;;;;18.65;42.82;102605.06;5007353;28;20033;-65
2022/12/01 02:00:24;;;;;;;12.70;8.00;;;;;;;18.56;42.52;102597.66;5014539;28;20057;-63
2022/12/01 02:02:51;;;;;;;12.98;8.15;;;;;;;18.62;42.35;102605.25;5013491;28;20497;-64
2022/12/01 02:05:22;;;;;;;10.80;7.28;;;;;;;18.62;42.46;102613.16;5011009;28;20040;-66
2022/12/01 02:07:49;;;;;;;11.45;7.68;;;;;;;18.61;42.74;102613.25;5017238;28;20042;-64
2022/12/01 02:10:21;;;;;;;12.43;8.10;;;;;;;18.63;42.74;102609.59;5020867;28;20045;-66
2022/12/01 02:13:27;;;;;;;12.07;8.07;;;;;;;18.63;42.65;102606.97;5021844;28;20025;-63
2022/12/01 02:16:11;;;;;;;12.43;7.82;;;;;;;18.54;42.57;102591.63;5005551;28;20048;-65
2022/12/01 02:19:20;;;;;;;13.30;8.15;;;;;;;18.61;42.51;102610.59;5018144;28;20036;-68
2022/12/01 02:22:04;;;;;;;13.23;8.20;;;;;;;18.62;42.29;102607.03;5013376;28;20030;-65
2022/12/01 02:24:55;;;;;;;10.85;7.90;;;;;;;18.58;42.50;102606.38;5018190;28;20029;-64
2022/12/01 02:27:37;;;;;;;12.05;8.02;;;;;;;18.59;42.09;102605.41;5009286;28;20037;-63
2022/12/01 02:30:07;;;;;;;14.57;8.82;;;;;;;18.58;42.29;102608.13;5002931;28;20068;-64
2022/12/01 02:32:47;;;;;;;12.48;8.30;;;;;;;18.58;42.29;102605.50;5012499;28;20026;-67
2022/12/01 02:35:28;;;;;;;11.98;8.02;;;;;;;18.57;42.46;102612.56;5016858;28;20041;-66
2022/12/01 02:38:06;;;;;;;12.07;8.05;;;;;;;18.56;42.71;102610.84;5009910;28;20085;-65
2022/12/01 02:40:38;;;;;;;12.80;8.48;;;;;;;18.56;42.38;102615.31;5014812;28;20493;-64
2022/12/01 02:43:13;;;;;;;13.55;7.90;;;;;;;18.55;42.09;102603.03;5019536;28;20501;-65
2022/12/01 02:45:44;;;;;;;12.07;7.85;;;;;;;18.53;42.19;102605.75;5002632;28;20045;-66
2022/12/01 02:48:28;;;;;;;12.52;8.13;;;;;;;18.56;42.38;102608.22;5017811;28;20029;-64
2022/12/01 02:50:57;;;;;;;12.90;8.20;;;;;;;18.52;42.33;102604.06;5021642;28;20053;-64
2022/12/01 02:53:22;;;;;;;14.25;8.70;;;;;;;18.56;42.21;102615.31;5022060;28;20034;-64
2022/12/01 02:55:51;;;;;;;11.52;7.90;;;;;;;18.55;42.22;102608.31;5019560;28;20029;-64
2022/12/01 02:58:17;;;;;;;12.23;8.20;;;;;;;18.53;42.19;102611.03;5010328;28;20408;-65
2022/12/01 03:01:06;;;;;;;13.30;8.15;;;;;;;18.54;42.41;102611.91;5008885;28;20459;-65
2022/12/01 03:03:57;;;;;;;13.45;8.90;;;;;;;18.51;42.21;102606.78;5013941;28;20052;-66
2022/12/01 03:06:51;;;;;;;15.45;8.18;;;;;;;18.53;41.92;102611.03;4974283;28;20065;-68
2022/12/01 03:09:23;;;;;;;13.70;8.80;;;;;;;18.51;42.17;102622.63;5001950;28;20034;-65
2022/12/01 03:12:12;;;;;;;13.23;8.82;;;;;;;18.48;42.26;102607.78;5004699;28;20041;-66
2022/12/01 03:15:08;;;;;;;13.02;8.75;;;;;;;18.51;42.11;102612.91;5021606;28;20559;-66
2022/12/01 03:17:40;;;;;;;14.27;9.05;;;;;;;18.48;42.27;102605.16;4967806;28;20502;-66
2022/12/01 03:20:13;;;;;;;13.23;8.50;;;;;;;18.46;42.20;102604.41;5017266;28;20504;-67
2022/12/01 03:22:48;;;;;;;13.17;8.37;;;;;;;18.49;42.01;102617.44;5017001;28;20026;-64
2022/12/01 03:25:16;;;;;;;13.00;8.82;;;;;;;18.48;42.10;102613.06;5001835;28;20064;-66
2022/12/01 03:27:45;;;;;;;14.25;9.00;;;;;;;18.46;42.29;102607.88;5009597;28;20033;-68
2022/12/01 03:30:11;;;;;;;13.50;8.95;;;;;;;18.46;42.08;102612.31;5021328;28;20037;-67
2022/12/01 03:32:50;;;;;;;12.55;8.60;;;;;;;18.46;42.21;102612.31;5019094;28;20032;-65
2022/12/01 03:35:21;;;;;;;13.75;9.13;;;;;;;18.45;42.03;102611.47;5012042;28;20124;-66
2022/12/01 03:37:57;;;;;;;13.80;8.73;;;;;;;18.43;42.16;102605.41;5007596;28;20413;-64
2022/12/01 03:40:26;;;;;;;12.95;8.75;;;;;;;18.45;42.08;102605.31;5008709;28;20029;-63
2022/12/01 03:42:56;;;;;;;14.02;8.40;;;;;;;18.44;42.28;102609.75;5021237;28;20064;-66
2022/12/01 03:45:59;;;;;;;13.30;8.32;;;;;;;18.44;42.09;102611.56;5016933;28;20112;-65
2022/12/01 03:48:25;;;;;;;12.63;8.57;;;;;;;18.44;42.17;102612.41;4987079;28;20109;-65
2022/12/01 03:51:33;;;;;;;13.43;8.48;;;;;;;18.43;42.28;102605.41;5001411;28;20084;-65
2022/12/01 03:54:17;;;;;;;13.23;8.98;;;;;;;18.41;42.11;102606.44;5000144;28;20041;-65
2022/12/01 03:56:46;;;;;;;13.38;8.82;;;;;;;18.39;42.13;102609.16;5005157;28;20076;-65
2022/12/01 03:59:15;;;;;;;12.38;8.02;;;;;;;18.38;42.38;102611.88;5020651;28;20049;-65
2022/12/01 04:01:40;;;;;;;13.52;8.90;;;;;;;18.41;42.14;102612.56;5020556;28;20520;-64
2022/12/01 04:04:11;;;;;;;12.57;8.60;;;;;;;18.39;42.11;102614.44;5030798;28;20033;-68
2022/12/01 04:06:40;;;;;;;12.73;8.50;;;;;;;18.37;42.14;102615.44;5016056;28;20037;-69
2022/12/01 04:09:06;;;;;;;12.20;8.38;;;;;;;18.36;42.09;102608.47;5015814;28;20041;-65
2022/12/01 04:14:15;;;;;;;13.15;8.80;;;;;;;18.36;42.14;102614.63;5013210;28;20262;-65
2022/12/01 04:16:40;;;;;;;12.77;8.40;;;;;;;18.36;42.29;102614.63;5013528;28;20030;-66
2022/12/01 04:19:05;;;;;;;13.53;8.63;;;;;;;18.34;42.01;102612.97;5006123;28;20402;-66
2022/12/01 04:21:30;;;;;;;13.90;8.80;;;;;;;18.35;42.07;102618.19;5006733;28;20333;-68
2022/12/01 04:23:59;;;;;;;12.43;8.73;;;;;;;18.35;42.00;102618.19;5006043;28;20371;-66
2022/12/01 04:26:24;;;;;;;12.55;9.05;;;;;;;18.30;41.95;102610.50;5020516;28;20035;-65
2022/12/01 04:28:49;;;;;;;12.95;8.30;;;;;;;18.33;42.36;102613.94;5018075;28;20393;-65
2022/12/01 04:31:14;;;;;;;11.80;8.57;;;;;;;18.34;42.01;102618.25;5003542;28;20041;-66
2022/12/01 04:33:40;;;;;;;12.32;8.82;;;;;;;18.35;42.07;102625.25;5020073;28;20742;-67
2022/12/01 04:36:05;;;;;;;12.73;8.47;;;;;;;18.29;41.93;102603.53;5004914;28;20036;-65
2022/12/01 04:38:30;;;;;;;12.38;8.68;;;;;;;18.28;42.25;102609.75;5018867;28;21067;-67
2022/12/01 04:40:56;;;;;;;12.50;9.03;;;;;;;18.31;42.05;102616.66;5009544;28;20109;-67
2022/12/01 04:43:21;;;;;;;11.40;7.93;;;;;;;18.24;42.08;102599.44;5024310;28;20259;-66
2022/12/01 04:45:46;;;;;;;12.70;9.03;;;;;;;18.31;42.09;102612.22;5024190;28;20266;-65
2022/12/01 04:48:11;;;;;;;11.48;8.23;;;;;;;18.32;42.09;102610.41;5022953;28;21175;-65
2022/12/01 04:50:37;;;;;;;13.87;8.80;;;;;;;18.28;42.17;102612.38;5015011;28;20037;-65
2022/12/01 04:53:03;;;;;;;11.70;8.07;;;;;;;18.29;41.95;102613.22;5024238;28;20262;-64
2022/12/01 04:55:28;;;;;;;12.35;8.80;;;;;;;18.30;41.91;102621.06;5007409;28;20370;-64
2022/12/01 04:57:53;;;;;;;12.57;8.97;;;;;;;18.27;41.82;102613.31;5020381;28;20129;-68
2022/12/01 05:00:19;;;;;;;13.57;9.13;;;;;;;18.29;41.97;102608.81;5024415;28;20319;-69
2022/12/01 05:02:44;;;;;;;13.70;8.95;;;;;;;18.29;41.70;102614.09;5016995;28;20621;-66
2022/12/01 05:05:11;;;;;;;12.32;8.80;;;;;;;18.28;42.08;102611.53;5015231;28;20033;-67
2022/12/01 05:07:36;;;;;;;12.80;8.43;;;;;;;18.19;41.76;102604.13;5010793;28;20045;-66
2022/12/01 05:10:03;;;;;;;11.15;8.32;;;;;;;18.25;42.26;102614.34;5004553;28;20033;-66
2022/12/01 05:12:28;;;;;;;12.90;8.40;;;;;;;18.26;42.00;102608.97;5003432;28;20046;-65
2022/12/01 05:14:53;;;;;;;11.70;8.35;;;;;;;18.27;42.10;102609.81;5004627;28;20057;-64
2022/12/01 05:17:19;;;;;;;12.25;8.52;;;;;;;18.27;41.84;102610.66;5009427;28;20541;-66
2022/12/01 05:22:27;;;;;;;13.05;8.73;;;;;;;18.26;41.93;102614.25;5012374;28;20455;-64
2022/12/01 05:24:53;;;;;;;11.47;8.23;;;;;;;18.26;42.11;102618.66;5019133;28;20034;-65
2022/12/01 05:27:18;;;;;;;12.77;8.50;;;;;;;18.24;42.14;102610.00;5019844;28;20786;-65
2022/12/01 05:29:43;;;;;;;12.45;8.80;;;;;;;18.25;41.92;102619.63;5012793;28;20033;-68
2022/12/01 05:32:09;;;;;;;11.32;8.48;;;;;;;18.23;41.83;102608.28;5019670;28;20390;-65
2022/12/01 05:34:34;;;;;;;11.73;8.13;;;;;;;18.22;42.00;102617.16;5016276;28;20058;-68
2022/12/01 05:36:59;;;;;;;11.57;8.15;;;;;;;18.25;42.01;102622.25;5003983;28;20397;-65
2022/12/01 05:39:24;;;;;;;12.77;9.50;;;;;;;18.21;41.81;102623.34;5003988;28;20383;-66
2022/12/01 05:41:50;;;;;;;11.90;8.63;;;;;;;18.23;42.10;102624.97;5002916;28;20052;-65
2022/12/01 05:44:15;;;;;;;11.17;8.10;;;;;;;18.23;41.92;102626.75;5014295;28;20445;-65
2022/12/01 05:46:40;;;;;;;12.05;8.38;;;;;;;18.22;41.93;102627.69;5023295;28;20267;-65
2022/12/01 05:49:06;;;;;;;12.45;8.63;;;;;;;18.20;42.09;102619.88;5021757;28;20029;-67
2022/12/01 05:51:31;;;;;;;11.98;8.85;;;;;;;18.21;41.92;102620.72;5017264;28;20037;-67
2022/12/01 05:53:58;;;;;;;10.73;7.88;;;;;;;18.19;42.01;102617.31;5023289;28;20040;-67
2022/12/01 05:56:23;;;;;;;11.57;8.25;;;;;;;18.19;42.08;102620.78;5022897;28;20044;-65
2022/12/01 05:58:49;;;;;;;11.73;7.93;;;;;;;18.19;41.83;102622.59;5003592;28;20026;-64
2022/12/01 06:01:14;;;;;;;10.70;7.82;;;;;;;18.22;42.16;102630.34;5003364;28;20030;-68
2022/12/01 06:03:39;;;;;;;11.88;8.07;;;;;;;18.21;42.34;102623.34;5007133;28;20399;-63
2022/12/01 06:06:05;;;;;;;12.50;8.10;;;;;;;18.24;42.15;102631.94;5003572;28;20398;-63
2022/12/01 06:08:30;;;;;;;10.95;8.00;;;;;;;18.28;42.41;102637.94;5012582;28;20263;-66
2022/12/01 06:10:55;;;;;;;10.77;7.33;;;;;;;18.28;42.37;102627.38;5022702;28;20037;-67
2022/12/01 06:13:21;;;;;;;9.50;6.88;;;;;;;18.30;42.39;102620.22;5022722;28;20282;-68
2022/12/01 06:15:56;;;;;;;9.40;6.88;;;;;;;18.35;42.55;102625.25;5023040;28;20021;-67
2022/12/01 06:18:21;;;;;;;10.93;7.20;;;;;;;18.30;42.74;102617.56;5003709;28;20030;-66
2022/12/01 06:20:46;;;;;;;9.68;6.78;;;;;;;18.43;42.45;102634.44;5005917;28;20433;-66
2022/12/01 06:23:11;;;;;;;11.23;6.97;;;;;;;18.46;42.54;102628.16;5022289;28;20034;-65
2022/12/01 06:25:37;;;;;;;9.77;6.53;;;;;;;18.48;42.10;102623.63;5022716;28;20658;-63
2022/12/01 06:28:02;;;;;;;9.57;6.13;;;;;;;18.52;42.52;102625.19;5005192;28;20104;-64
2022/12/01 06:30:27;;;;;;;9.70;6.82;;;;;;;18.52;42.19;102625.19;5003138;28;20286;-66
2022/12/01 06:32:53;;;;;;;9.60;6.60;;;;;;;18.54;42.31;102628.59;5002017;28;20029;-66
2022/12/01 06:35:18;;;;;;;9.57;6.00;;;;;;;18.59;42.03;102628.34;5007948;28;20052;-65
2022/12/01 06:37:44;;;;;;;8.48;5.50;;;;;;;18.54;42.17;102620.66;5017449;28;20747;-67
2022/12/01 06:40:10;;;;;;;9.73;6.70;;;;;;;18.62;42.11;102626.38;4985657;28;20121;-66
2022/12/01 06:42:35;;;;;;;9.68;6.47;;;;;;;18.65;41.91;102628.00;5002428;28;20398;-65
2022/12/01 06:45:00;;;;;;;10.48;7.10;;;;;;;18.68;42.30;102633.13;5008807;28;20088;-67
2022/12/01 06:47:26;;;;;;;10.13;6.80;;;;;;;18.73;42.43;102635.50;5019316;28;20045;-66
2022/12/01 06:49:51;;;;;;;11.27;6.30;;;;;;;18.75;42.38;102636.25;5005969;28;20271;-65
2022/12/01 06:52:16;;;;;;;8.80;6.30;;;;;;;18.73;42.30;102631.06;5021960;28;20037;-64
2022/12/01 06:54:41;;;;;;;9.53;6.63;;;;;;;18.76;42.29;102641.47;5001951;28;20350;-66
2022/12/01 06:57:07;;;;;;;11.00;6.87;;;;;;;18.81;42.76;102641.19;5004581;28;20671;-68
2022/12/01 06:59:32;;;;;;;11.53;6.80;;;;;;;18.84;42.42;102649.00;5011949;28;20273;-64
2022/12/01 07:01:57;;;;;;;9.93;7.10;;;;;;;18.84;42.71;102649.00;5007864;28;20291;-64
2022/12/01 07:04:22;;;;;;;10.02;6.60;;;;;;;18.85;42.56;102656.00;5009508;28;20267;-67
2022/12/01 07:06:48;;;;;;;9.93;6.63;;;;;;;18.88;42.37;102661.06;5003332;28;20121;-65
2022/12/01 07:09:13;;;;;;;9.40;6.18;;;;;;;18.88;42.32;102660.22;5002424;28;20398;-66
2022/12/01 07:11:38;;;;;;;10.55;6.60;;;;;;;18.90;42.34;102666.28;5002023;28;20084;-65
2022/12/01 07:14:04;;;;;;;9.50;6.30;;;;;;;18.85;42.20;102659.47;5003410;28;20033;-66
2022/12/01 07:16:29;;;;;;;11.00;6.70;;;;;;;18.90;42.19;102664.50;5010316;28;20034;-69
2022/12/01 07:18:54;;;;;;;9.20;6.27;;;;;;;18.89;42.24;102665.44;5012917;28;20466;-66
2022/12/01 07:21:23;;;;;;;10.60;6.45;;;;;;;18.92;42.45;102665.25;5018059;28;20310;-67
2022/12/01 07:23:49;;;;;;;9.60;6.78;;;;;;;18.91;42.20;102670.63;4986476;28;20030;-67
2022/12/01 07:26:16;;;;;;;9.05;6.07;;;;;;;18.92;42.21;102675.81;5021456;28;20116;-65
2022/12/01 07:28:42;;;;;;;10.85;7.05;;;;;;;18.91;42.70;102674.13;5021341;28;20113;-65
2022/12/01 07:31:18;;;;;;;9.48;6.63;;;;;;;18.93;42.91;102676.66;5021455;28;20596;-66
2022/12/01 07:33:44;;;;;;;9.45;6.40;;;;;;;18.94;43.03;102681.88;5001645;28;20113;-63
2022/12/01 07:36:10;;;;;;;10.18;6.90;;;;;;;18.95;43.18;102678.31;5006811;28;20433;-66
2022/12/01 07:38:37;;;;;;;9.98;6.35;;;;;;;18.96;43.30;102680.00;5006500;28;20033;-65
2022/12/01 07:41:06;;;;;;;8.93;6.20;;;;;;;18.95;43.18;102678.31;5017875;28;20056;-67
2022/12/01 07:43:32;;;;;;;9.60;6.65;;;;;;;18.96;43.19;102680.00;5017321;28;20084;-65
2022/12/01 07:46:10;;;;;;;10.35;6.70;;;;;;;18.98;43.02;102683.41;5018499;28;20034;-67
2022/12/01 07:48:37;;;;;;;9.25;6.05;;;;;;;19.00;43.15;102683.31;5012262;28;20105;-68
2022/12/01 07:51:06;;;;;;;8.90;6.03;;;;;;;19.00;43.13;102685.97;5011905;28;20037;-66
2022/12/01 07:53:32;;;;;;;9.68;6.05;;;;;;;18.96;43.38;102679.13;5010339;28;20144;-67
2022/12/01 07:55:58;;;;;;;10.55;6.65;;;;;;;18.96;43.18;102682.66;5021265;28;20116;-69
2022/12/01 07:58:23;;;;;;;12.15;6.95;;;;;;;18.99;43.22;102689.53;5020917;28;20099;-68
2022/12/01 08:00:49;;;;;;;9.93;6.68;;;;;;;19.00;43.37;102691.25;5007439;28;20038;-67
2022/12/01 08:03:14;;;;;;;10.30;6.53;;;;;;;18.99;43.27;102689.53;5010626;28;20033;-69
2022/12/01 08:05:39;;;;;;;12.35;6.93;;;;;;;19.01;43.01;102690.34;5035255;28;20041;-68
2022/12/01 08:08:05;;;;;;;10.05;6.38;;;;;;;19.00;43.45;102691.25;5013154;28;20097;-66
2022/12/01 08:10:30;;;;;;;8.35;6.40;;;;;;;19.05;43.13;102704.22;5010349;28;20041;-67
2022/12/01 08:12:56;;;;;;;10.65;6.60;;;;;;;19.02;43.14;102706.06;5008110;28;20038;-67
2022/12/01 08:15:21;;;;;;;10.40;6.55;;;;;;;19.03;43.51;102704.31;5012785;28;20076;-67
2022/12/01 08:17:46;;;;;;;9.82;6.43;;;;;;;19.03;43.34;102707.78;5010221;28;20038;-67
2022/12/01 08:20:12;;;;;;;10.13;6.70;;;;;;;19.03;43.55;102709.59;5002729;28;20038;-64
2022/12/01 08:22:37;;;;;;;10.20;6.38;;;;;;;19.01;43.36;102703.53;5007526;28;20077;-69
2022/12/01 08:25:03;;;;;;;8.70;6.07;;;;;;;19.02;43.15;102708.72;5011246;28;20049;-67
2022/12/01 08:27:28;;;;;;;10.98;7.18;;;;;;;19.03;43.26;102706.94;5017530;28;20044;-69
2022/12/01 08:29:54;;;;;;;10.80;6.45;;;;;;;19.04;43.47;102705.97;5013853;28;20046;-68
2022/12/01 08:32:19;;;;;;;8.80;6.15;;;;;;;19.02;43.28;102714.00;5012743;28;20038;-68
2022/12/01 08:34:44;;;;;;;11.50;6.70;;;;;;;19.00;43.18;102709.75;5017698;28;20513;-67
2022/12/01 08:37:10;;;;;;;10.63;7.07;;;;;;;19.02;43.54;102713.16;5011471;28;20255;-67
2022/12/01 08:39:35;;;;;;;9.93;6.45;;;;;;;19.02;43.42;102715.78;5000203;28;20037;-64
2022/12/01 08:42:00;;;;;;;10.07;6.78;;;;;;;19.04;43.34;102719.19;5019547;28;20044;-67
2022/12/01 08:44:26;;;;;;;8.75;6.22;;;;;;;19.04;43.52;102719.19;5004789;28;20038;-66
2022/12/01 08:46:51;;;;;;;10.88;7.00;;;;;;;19.07;43.06;102723.47;5010171;28;20494;-66
2022/12/01 08:49:17;;;;;;;10.40;6.55;;;;;;;19.05;43.18;102714.78;5018512;28;20030;-67
2022/12/01 08:51:42;;;;;;;9.98;6.95;;;;;;;19.03;43.14;102717.50;5008788;28;20552;-68
2022/12/01 08:54:09;;;;;;;9.95;7.10;;;;;;;19.06;42.82;102719.13;5005612;28;20041;-69
2022/12/01 08:56:38;;;;;;;9.88;6.80;;;;;;;19.04;43.02;102716.56;5014582;28;20037;-68
2022/12/01 08:59:03;;;;;;;10.98;7.03;;;;;;;19.08;42.97;102719.91;5013883;28;20042;-66
2022/12/01 09:01:29;;;;;;;9.00;6.43;;;;;;;19.08;43.20;102725.19;5014435;28;20057;-65
2022/12/01 09:04:06;;;;;;;11.73;6.93;;;;;;;19.07;43.20;102712.91;4991329;28;20941;-67
2022/12/01 09:06:38;;;;;;;10.05;6.63;;;;;;;19.08;43.27;102718.09;5019523;28;20091;-65
2022/12/01 09:09:04;;;;;;;11.18;6.93;;;;;;;19.06;43.37;102713.81;5017679;28;20021;-67
2022/12/01 09:11:29;;;;;;;9.98;6.05;;;;;;;19.07;43.25;102707.63;5020158;28;20033;-67
2022/12/01 09:13:54;;;;;;;10.57;6.50;;;;;;;19.06;43.21;102711.19;5019335;28;20038;-66
2022/12/01 09:16:20;;;;;;;11.13;6.23;;;;;;;19.06;43.27;102712.06;5019891;28;20041;-69
2022/12/01 09:18:46;;;;;;;10.93;6.85;;;;;;;19.04;43.33;102713.91;5020409;28;20643;-65
2022/12/01 09:21:16;;;;;;;10.70;7.22;;;;;;;19.07;43.08;102723.47;5019668;28;20104;-66
2022/12/01 09:23:42;;;;;;;10.82;6.95;;;;;;;19.03;43.11;102715.72;5020125;28;20041;-65
2022/12/01 09:26:08;;;;;;;11.60;6.43;;;;;;;19.05;43.21;102722.72;5017085;28;20975;-68
2022/12/01 09:28:34;;;;;;;10.50;7.05;;;;;;;19.07;43.02;102726.94;5010286;28;20088;-66
2022/12/01 09:31:04;;;;;;;10.30;6.75;;;;;;;19.00;43.21;102712.41;5010135;28;20092;-68
2022/12/01 09:33:30;;;;;;;10.23;7.03;;;;;;;19.10;43.32;102726.78;5024135;28;20394;-68
2022/12/01 09:35:59;;;;;;;10.10;6.50;;;;;;;19.05;43.21;102720.91;5019409;28;20052;-67
2022/12/01 09:38:25;;;;;;;9.95;6.38;;;;;;;19.07;43.25;102729.59;5004321;28;20100;-66
2022/12/01 09:40:51;;;;;;;10.98;6.93;;;;;;;19.07;43.19;102732.25;5002872;28;20404;-66
2022/12/01 09:43:21;;;;;;;8.75;6.22;;;;;;;19.06;43.07;102732.31;5009327;28;20120;-66
2022/12/01 09:45:53;;;;;;;13.23;7.30;;;;;;;19.05;43.18;102728.00;5016757;28;20138;-67
2022/12/01 09:48:41;;;;;;;10.65;6.80;;;;;;;19.06;43.04;102733.19;5021142;28;20795;-67
2022/12/01 09:51:12;;;;;;;11.38;7.35;;;;;;;19.11;42.94;102735.59;5018512;28;20037;-68
2022/12/01 09:53:38;;;;;;;10.50;6.93;;;;;;;19.13;43.11;102728.41;5017220;28;20029;-66
2022/12/01 09:56:04;;;;;;;10.15;7.15;;;;;;;19.10;43.21;102726.78;5004588;28;20084;-66
2022/12/01 09:58:29;;;;;;;9.68;7.10;;;;;;;19.13;42.90;102734.53;5008272;28;20429;-68
2022/12/01 10:00:56;;;;;;;11.25;7.18;;;;;;;19.13;42.71;102728.41;5019667;28;20029;-69
2022/12/01 10:03:45;;;;;;;10.75;7.75;;;;;;;19.15;42.48;102724.75;5002784;28;20496;-66
2022/12/01 10:06:15;;;;;;;11.68;7.15;;;;;;;19.14;42.48;102723.03;5007816;28;20513;-68
2022/12/01 10:08:49;;;;;;;11.43;7.40;;;;;;;19.12;42.65;102710.84;5021552;28;20142;-67
2022/12/01 10:11:34;;;;;;;11.00;7.00;;;;;;;19.18;42.60;102719.31;5002084;28;20869;-67
2022/12/01 10:14:00;;;;;;;10.65;6.93;;;;;;;19.18;42.75;102719.31;4998800;28;20080;-69
2022/12/01 10:16:44;;;;;;;10.25;7.32;;;;;;;19.18;42.93;102721.94;4998928;28;20030;-65
2022/12/01 10:19:19;;;;;;;10.63;6.53;;;;;;;19.20;42.51;102713.91;5009342;28;20033;-64
2022/12/01 10:22:04;;;;;;;13.70;7.53;;;;;;;19.23;42.28;102720.81;5007024;28;20076;-67
2022/12/01 10:24:47;;;;;;;10.68;7.55;;;;;;;19.21;42.38;102716.47;5010010;28;20053;-65
2022/12/01 10:27:39;;;;;;;11.47;7.50;;;;;;;19.21;42.44;102716.47;5010001;28;20398;-66
2022/12/01 10:30:09;;;;;;;10.95;7.13;;;;;;;19.22;42.33;102712.03;4993196;28;20361;-68
2022/12/01 10:32:56;;;;;;;13.70;7.78;;;;;;;19.13;42.28;102689.63;4998941;28;20553;-66
2022/12/01 10:35:25;;;;;;;9.75;7.43;;;;;;;19.21;42.29;102710.34;4998561;28;20049;-68
2022/12/01 10:37:56;;;;;;;12.15;8.13;;;;;;;19.22;42.02;102704.13;4987852;28;20508;-69
2022/12/01 10:40:23;;;;;;;12.20;7.90;;;;;;;19.23;42.22;102697.03;5005695;28;20033;-67
2022/12/01 10:42:49;;;;;;;14.27;8.52;;;;;;;19.23;42.27;102694.38;5004194;28;20077;-68
2022/12/01 10:45:23;;;;;;;12.70;7.57;;;;;;;19.21;42.14;102691.81;5022152;28;20618;-67
2022/12/01 10:48:07;;;;;;;11.30;7.82;;;;;;;19.25;42.29;102688.09;5001094;28;20041;-68
2022/12/01 10:50:34;;;;;;;12.07;7.85;;;;;;;19.24;42.24;102686.38;5007173;28;20061;-68
2022/12/01 10:53:00;;;;;;;13.32;7.55;;;;;;;19.23;42.50;102682.00;4999855;28;20037;-69
2022/12/01 10:55:32;;;;;;;10.93;7.15;;;;;;;19.25;42.42;102692.50;5008700;28;20030;-68
2022/12/01 10:58:01;;;;;;;13.32;7.72;;;;;;;19.25;42.27;102687.22;5012373;28;20025;-64
2022/12/01 11:00:38;;;;;;;10.93;7.55;;;;;;;19.24;41.91;102686.38;5007874;28;20088;-66
2022/12/01 11:03:03;;;;;;;11.55;7.72;;;;;;;19.25;42.18;102684.56;5009538;28;20116;-65
2022/12/01 11:05:34;;;;;;;12.02;7.60;;;;;;;19.25;42.19;102684.56;5012449;28;20108;-69
2022/12/01 11:07:59;;;;;;;10.65;8.05;;;;;;;19.25;42.25;102687.22;4990977;28;20462;-66
2022/12/01 11:10:32;;;;;;;16.70;8.20;;;;;;;19.21;42.33;102679.44;5002171;28;20040;-68
2022/12/01 11:13:21;;;;;;;11.68;8.35;;;;;;;19.22;42.37;102677.69;5009178;28;20041;-68
2022/12/01 11:15:53;;;;;;;11.75;8.07;;;;;;;19.20;42.51;102683.06;5003118;28;20036;-69
2022/12/01 11:18:28;;;;;;;13.60;8.23;;;;;;;19.19;42.51;102680.50;5008739;28;20867;-68
2022/12/01 11:21:14;;;;;;;11.93;7.75;;;;;;;19.21;42.67;102674.16;5010966;28;20034;-66
2022/12/01 11:23:48;;;;;;;12.88;8.60;;;;;;;19.19;42.83;102669.94;5005802;28;20397;-67
2022/12/01 11:26:26;;;;;;;12.48;8.07;;;;;;;19.21;42.63;102670.69;5004069;28;20037;-65
2022/12/01 11:28:58;;;;;;;10.98;8.15;;;;;;;19.21;42.40;102671.53;5010310;28;20037;-67
2022/12/01 11:31:42;;;;;;;11.45;8.25;;;;;;;19.23;42.63;102673.25;5000090;28;20141;-66
2022/12/01 11:34:20;;;;;;;;;;;;;;;19.28;42.58;102668.53;5002576;28;20061;-61